sensor_id;sensor_type;location;lat;lon;timestamp;pressure;altitude;pressure_sealevel;temperature;humidity
42003;BME280;27693;50.506;30.832;2022-09-12T00:00:07;98940.02;;;12.56;96.94
42003;BME280;27693;50.506;30.832;2022-09-12T00:01:16;98937.52;;;12.67;97.02
42003;BME280;27693;50.506;30.832;2022-09-12T00:02:20;98924.69;;;12.77;96.72
42003;BME280;27693;50.506;30.832;2022-09-12T00:03:24;98929.91;;;12.77;96.43
42003;BME280;27693;50.506;30.832;2022-09-12T00:04:28;98929.69;;;12.67;96.15
42003;BME280;27693;50.506;30.832;2022-09-12T00:05:31;98927.63;;;12.72;95.48
42003;BME280;27693;50.506;30.832;2022-09-12T00:06:36;98928.97;;;12.78;95.42
42003;BME280;27693;50.506;30.832;2022-09-12T00:07:40;98923.75;;;12.78;95.39
42003;BME280;27693;50.506;30.832;2022-09-12T00:08:42;98927.84;;;12.82;95.70
42003;BME280;27693;50.506;30.832;2022-09-12T00:09:44;98930.86;;;12.89;95.32
42003;BME280;27693;50.506;30.832;2022-09-12T00:10:46;98932.84;;;12.85;94.85
42003;BME280;27693;50.506;30.832;2022-09-12T00:11:48;98922.62;;;12.82;95.11
42003;BME280;27693;50.506;30.832;2022-09-12T00:12:51;98923.84;;;12.63;96.22
42003;BME280;27693;50.506;30.832;2022-09-12T00:13:58;98917.80;;;12.63;96.73
42003;BME280;27693;50.506;30.832;2022-09-12T00:15:01;98925.73;;;12.61;96.89
42003;BME280;27693;50.506;30.832;2022-09-12T00:16:04;98920.11;;;12.68;96.76
42003;BME280;27693;50.506;30.832;2022-09-12T00:17:06;98922.41;;;12.72;96.50
42003;BME280;27693;50.506;30.832;2022-09-12T00:18:14;98912.60;;;12.76;96.35
42003;BME280;27693;50.506;30.832;2022-09-12T00:19:17;98915.72;;;12.81;95.78
42003;BME280;27693;50.506;30.832;2022-09-12T00:20:20;98914.47;;;12.74;95.86
42003;BME280;27693;50.506;30.832;2022-09-12T00:21:23;98911.33;;;12.82;95.67
42003;BME280;27693;50.506;30.832;2022-09-12T00:22:25;98915.93;;;12.91;95.76
42003;BME280;27693;50.506;30.832;2022-09-12T00:23:28;98913.02;;;12.96;95.39
42003;BME280;27693;50.506;30.832;2022-09-12T00:24:30;98921.36;;;13.01;95.36
42003;BME280;27693;50.506;30.832;2022-09-12T00:25:32;98912.39;;;12.92;94.98
42003;BME280;27693;50.506;30.832;2022-09-12T00:26:34;98911.76;;;12.88;95.21
42003;BME280;27693;50.506;30.832;2022-09-12T00:27:36;98909.47;;;12.97;94.85
42003;BME280;27693;50.506;30.832;2022-09-12T00:28:39;98914.27;;;13.03;94.69
42003;BME280;27693;50.506;30.832;2022-09-12T00:29:42;98908.61;;;13.09;94.68
42003;BME280;27693;50.506;30.832;2022-09-12T00:30:47;98908.61;;;13.09;94.12
42003;BME280;27693;50.506;30.832;2022-09-12T00:31:49;98902.96;;;13.15;93.58
42003;BME280;27693;50.506;30.832;2022-09-12T00:32:51;98901.28;;;13.14;93.68
42003;BME280;27693;50.506;30.832;2022-09-12T00:33:56;98901.41;;;13.00;94.20
42003;BME280;27693;50.506;30.832;2022-09-12T00:34:58;98898.80;;;13.00;94.25
42003;BME280;27693;50.506;30.832;2022-09-12T00:37:14;98889.28;;;13.12;94.18
42003;BME280;27693;50.506;30.832;2022-09-12T00:38:16;98892.20;;;13.07;93.77
42003;BME280;27693;50.506;30.832;2022-09-12T00:39:18;98892.20;;;13.07;93.77
42003;BME280;27693;50.506;30.832;2022-09-12T00:40:21;98891.07;;;13.11;93.61
42003;BME280;27693;50.506;30.832;2022-09-12T00:42:29;98887.92;;;13.06;93.89
42003;BME280;27693;50.506;30.832;2022-09-12T00:43:39;98887.72;;;13.09;93.86
42003;BME280;27693;50.506;30.832;2022-09-12T00:44:45;98883.44;;;13.08;93.76
42003;BME280;27693;50.506;30.832;2022-09-12T00:45:47;98892.71;;;13.12;93.62
42003;BME280;27693;50.506;30.832;2022-09-12T00:46:59;98884.80;;;13.14;93.66
42003;BME280;27693;50.506;30.832;2022-09-12T00:48:13;98879.47;;;13.02;94.06
42003;BME280;27693;50.506;30.832;2022-09-12T00:49:23;98884.80;;;13.01;94.18
42003;BME280;27693;50.506;30.832;2022-09-12T00:50:27;98883.86;;;13.02;93.91
42003;BME280;27693;50.506;30.832;2022-09-12T00:51:31;98873.73;;;12.97;94.30
42003;BME280;27693;50.506;30.832;2022-09-12T00:52:43;98872.05;;;13.09;94.09
42003;BME280;27693;50.506;30.832;2022-09-12T00:53:44;98881.88;;;12.92;94.77
42003;BME280;27693;50.506;30.832;2022-09-12T00:54:50;98874.98;;;12.91;94.60
42003;BME280;27693;50.506;30.832;2022-09-12T00:55:53;98874.05;;;12.92;94.57
42003;BME280;27693;50.506;30.832;2022-09-12T00:56:59;98874.36;;;13.01;94.10
42003;BME280;27693;50.506;30.832;2022-09-12T00:59:20;98864.85;;;13.00;94.35
42003;BME280;27693;50.506;30.832;2022-09-12T01:00:25;98879.38;;;12.91;94.82
42003;BME280;27693;50.506;30.832;2022-09-12T01:01:28;98879.78;;;12.98;94.42
42003;BME280;27693;50.506;30.832;2022-09-12T01:02:32;98883.02;;;13.01;94.08
42003;BME280;27693;50.506;30.832;2022-09-12T01:03:34;98872.80;;;12.98;94.66
42003;BME280;27693;50.506;30.832;2022-09-12T01:04:38;98871.02;;;12.99;94.74
42003;BME280;27693;50.506;30.832;2022-09-12T01:05:45;98872.25;;;13.06;94.81
42003;BME280;27693;50.506;30.832;2022-09-12T01:06:48;98870.38;;;13.08;94.38
42003;BME280;27693;50.506;30.832;2022-09-12T01:07:52;98871.82;;;13.12;94.19
42003;BME280;27693;50.506;30.832;2022-09-12T01:08:55;98865.16;;;13.08;94.22
42003;BME280;27693;50.506;30.832;2022-09-12T01:09:59;98872.48;;;13.03;94.59
42003;BME280;27693;50.506;30.832;2022-09-12T01:11:03;98873.62;;;12.99;94.80
42003;BME280;27693;50.506;30.832;2022-09-12T01:12:05;98875.60;;;13.08;94.66
42003;BME280;27693;50.506;30.832;2022-09-12T01:13:08;98869.52;;;13.20;94.94
42003;BME280;27693;50.506;30.832;2022-09-12T01:14:13;98876.30;;;13.23;93.94
42003;BME280;27693;50.506;30.832;2022-09-12T01:15:15;98873.86;;;13.33;94.28
42003;BME280;27693;50.506;30.832;2022-09-12T01:16:18;98873.45;;;13.39;94.23
42003;BME280;27693;50.506;30.832;2022-09-12T01:17:20;98869.91;;;13.40;93.68
42003;BME280;27693;50.506;30.832;2022-09-12T01:18:32;98876.16;;;13.37;93.07
42003;BME280;27693;50.506;30.832;2022-09-12T01:19:47;98878.48;;;13.42;93.20
42003;BME280;27693;50.506;30.832;2022-09-12T01:20:53;98881.39;;;13.50;93.75
42003;BME280;27693;50.506;30.832;2022-09-12T01:22:29;98875.10;;;13.53;93.14
42003;BME280;27693;50.506;30.832;2022-09-12T01:29:49;98876.60;;;13.44;93.37
42003;BME280;27693;50.506;30.832;2022-09-12T01:31:13;98874.30;;;13.26;92.82
42003;BME280;27693;50.506;30.832;2022-09-12T01:32:21;98873.06;;;13.19;93.23
42003;BME280;27693;50.506;30.832;2022-09-12T01:37:28;98883.75;;;13.03;94.34
42003;BME280;27693;50.506;30.832;2022-09-12T01:38:35;98874.36;;;13.01;94.73
42003;BME280;27693;50.506;30.832;2022-09-12T01:39:57;98877.89;;;13.13;94.57
42003;BME280;27693;50.506;30.832;2022-09-12T01:41:15;98873.92;;;13.20;94.81
42003;BME280;27693;50.506;30.832;2022-09-12T01:42:32;98871.63;;;13.15;94.48
42003;BME280;27693;50.506;30.832;2022-09-12T01:47:31;98868.76;;;13.31;93.45
42003;BME280;27693;50.506;30.832;2022-09-12T01:48:35;98860.53;;;13.24;93.48
42003;BME280;27693;50.506;30.832;2022-09-12T01:51:03;98866.58;;;13.25;92.93
42003;BME280;27693;50.506;30.832;2022-09-12T01:52:09;98859.30;;;13.17;93.69
42003;BME280;27693;50.506;30.832;2022-09-12T01:53:26;98865.16;;;13.08;94.31
42003;BME280;27693;50.506;30.832;2022-09-12T01:54:50;98864.61;;;13.16;94.13
42003;BME280;27693;50.506;30.832;2022-09-12T01:57:17;98865.53;;;13.28;93.37
42003;BME280;27693;50.506;30.832;2022-09-12T01:58:25;98865.09;;;13.34;93.45
42003;BME280;27693;50.506;30.832;2022-09-12T01:59:33;98856.95;;;13.25;93.91
42003;BME280;27693;50.506;30.832;2022-09-12T02:00:47;98863.15;;;13.24;93.47
42003;BME280;27693;50.506;30.832;2022-09-12T02:02:01;98856.31;;;13.35;93.97
42003;BME280;27693;50.506;30.832;2022-09-12T02:03:09;98861.54;;;13.35;93.41
42003;BME280;27693;50.506;30.832;2022-09-12T02:05:39;98860.10;;;13.31;93.38
42003;BME280;27693;50.506;30.832;2022-09-12T02:08:02;98858.63;;;13.26;93.20
42003;BME280;27693;50.506;30.832;2022-09-12T02:09:11;98851.30;;;13.32;93.26
42003;BME280;27693;50.506;30.832;2022-09-12T02:10:21;98852.97;;;13.33;93.62
42003;BME280;27693;50.506;30.832;2022-09-12T02:11:24;98852.27;;;13.31;93.35
42003;BME280;27693;50.506;30.832;2022-09-12T02:12:30;98850.70;;;13.28;93.49
42003;BME280;27693;50.506;30.832;2022-09-12T02:14:52;98843.14;;;13.36;93.37
42003;BME280;27693;50.506;30.832;2022-09-12T02:15:57;98841.70;;;13.45;93.19
42003;BME280;27693;50.506;30.832;2022-09-12T02:17:07;98846.92;;;13.45;92.61
42003;BME280;27693;50.506;30.832;2022-09-12T02:18:12;98843.78;;;13.40;92.72
42003;BME280;27693;50.506;30.832;2022-09-12T02:19:22;98846.92;;;13.45;92.26
42003;BME280;27693;50.506;30.832;2022-09-12T02:20:29;98841.91;;;13.42;92.53
42003;BME280;27693;50.506;30.832;2022-09-12T02:21:35;98839.29;;;13.42;92.76
42003;BME280;27693;50.506;30.832;2022-09-12T02:22:40;98841.91;;;13.42;92.72
42003;BME280;27693;50.506;30.832;2022-09-12T02:23:46;98842.75;;;13.30;93.16
42003;BME280;27693;50.506;30.832;2022-09-12T02:24:51;98841.70;;;13.32;93.22
42003;BME280;27693;50.506;30.832;2022-09-12T02:25:59;98841.28;;;13.25;93.73
42003;BME280;27693;50.506;30.832;2022-09-12T02:27:13;98842.02;;;13.28;93.43
42003;BME280;27693;50.506;30.832;2022-09-12T02:28:18;98840.84;;;13.32;93.41
42003;BME280;27693;50.506;30.832;2022-09-12T02:29:21;98848.80;;;13.43;93.44
42003;BME280;27693;50.506;30.832;2022-09-12T02:30:24;98845.69;;;13.38;93.49
42003;BME280;27693;50.506;30.832;2022-09-12T02:31:45;98843.34;;;13.46;93.37
42003;BME280;27693;50.506;30.832;2022-09-12T02:33:00;98846.31;;;13.41;92.88
42003;BME280;27693;50.506;30.832;2022-09-12T02:34:21;98843.08;;;13.38;93.10
42003;BME280;27693;50.506;30.832;2022-09-12T02:35:41;98842.87;;;13.28;93.91
42003;BME280;27693;50.506;30.832;2022-09-12T02:36:51;98840.67;;;13.22;94.49
42003;BME280;27693;50.506;30.832;2022-09-12T02:38:03;98848.19;;;13.26;93.98
42003;BME280;27693;50.506;30.832;2022-09-12T02:39:05;98843.63;;;13.17;94.51
42003;BME280;27693;50.506;30.832;2022-09-12T02:40:08;98839.11;;;13.19;94.45
42003;BME280;27693;50.506;30.832;2022-09-12T02:41:15;98843.39;;;13.20;94.58
42003;BME280;27693;50.506;30.832;2022-09-12T02:42:18;98845.39;;;13.17;95.20
42003;BME280;27693;50.506;30.832;2022-09-12T02:43:20;98846.23;;;13.17;95.20
42003;BME280;27693;50.506;30.832;2022-09-12T02:44:23;98842.25;;;13.24;94.90
42003;BME280;27693;50.506;30.832;2022-09-12T02:45:26;98843.81;;;13.27;94.66
42003;BME280;27693;50.506;30.832;2022-09-12T02:46:41;98846.07;;;13.32;94.55
42003;BME280;27693;50.506;30.832;2022-09-12T02:47:49;98837.53;;;13.30;94.58
42003;BME280;27693;50.506;30.832;2022-09-12T02:48:52;98842.95;;;13.26;94.48
42003;BME280;27693;50.506;30.832;2022-09-12T02:49:55;98840.84;;;13.32;93.72
42003;BME280;27693;50.506;30.832;2022-09-12T02:50:59;98845.45;;;13.41;93.85
42003;BME280;27693;50.506;30.832;2022-09-12T02:52:02;98842.19;;;13.50;94.56
42003;BME280;27693;50.506;30.832;2022-09-12T02:53:06;98842.24;;;13.62;95.02
42003;BME280;27693;50.506;30.832;2022-09-12T02:54:09;98847.26;;;13.65;94.51
42003;BME280;27693;50.506;30.832;2022-09-12T02:55:13;98853.42;;;13.64;93.64
42003;BME280;27693;50.506;30.832;2022-09-12T02:56:26;98847.02;;;13.68;93.57
42003;BME280;27693;50.506;30.832;2022-09-12T02:57:24;98844.69;;;13.76;93.99
42003;BME280;27693;50.506;30.832;2022-09-12T02:58:29;98852.81;;;13.84;94.27
42003;BME280;27693;50.506;30.832;2022-09-12T02:59:32;98854.48;;;13.85;93.41
42003;BME280;27693;50.506;30.832;2022-09-12T03:00:38;98854.69;;;13.82;92.64
42003;BME280;27693;50.506;30.832;2022-09-12T03:08:57;98859.02;;;13.95;92.23
42003;BME280;27693;50.506;30.832;2022-09-12T03:12:35;98856.91;;;14.00;92.36
42003;BME280;27693;50.506;30.832;2022-09-12T03:15:08;98867.59;;;13.97;92.18
42003;BME280;27693;50.506;30.832;2022-09-12T03:16:26;98861.17;;;14.01;92.48
42003;BME280;27693;50.506;30.832;2022-09-12T03:22:58;98858.80;;;13.98;91.77
42003;BME280;27693;50.506;30.832;2022-09-12T03:26:36;98856.24;;;13.85;93.72
42003;BME280;27693;50.506;30.832;2022-09-12T03:27:42;98856.31;;;13.96;94.12
42003;BME280;27693;50.506;30.832;2022-09-12T03:28:45;98860.23;;;14.02;94.00
42003;BME280;27693;50.506;30.832;2022-09-12T03:29:49;98860.23;;;14.02;93.48
42003;BME280;27693;50.506;30.832;2022-09-12T03:30:53;98859.16;;;14.04;93.37
42003;BME280;27693;50.506;30.832;2022-09-12T03:31:57;98862.17;;;14.11;93.47
42003;BME280;27693;50.506;30.832;2022-09-12T03:32:59;98861.23;;;14.12;93.35
42003;BME280;27693;50.506;30.832;2022-09-12T03:34:01;98861.45;;;14.09;93.14
42003;BME280;27693;50.506;30.832;2022-09-12T03:35:04;98861.54;;;13.96;92.94
42003;BME280;27693;50.506;30.832;2022-09-12T03:36:22;98861.91;;;14.03;93.42
42003;BME280;27693;50.506;30.832;2022-09-12T03:37:24;98864.06;;;14.09;93.62
42003;BME280;27693;50.506;30.832;2022-09-12T03:38:26;98856.48;;;14.17;93.15
42003;BME280;27693;50.506;30.832;2022-09-12T03:39:28;98858.64;;;14.24;92.96
42003;BME280;27693;50.506;30.832;2022-09-12T03:40:31;98858.17;;;14.30;92.74
42003;BME280;27693;50.506;30.832;2022-09-12T03:41:33;98863.41;;;14.30;92.56
42003;BME280;27693;50.506;30.832;2022-09-12T03:42:35;98859.63;;;14.34;92.32
42003;BME280;27693;50.506;30.832;2022-09-12T03:43:37;98866.29;;;14.38;92.23
42003;BME280;27693;50.506;30.832;2022-09-12T03:44:38;98855.83;;;14.38;92.01
42003;BME280;27693;50.506;30.832;2022-09-12T03:45:41;98855.83;;;14.38;92.01
42003;BME280;27693;50.506;30.832;2022-09-12T03:46:43;98865.22;;;14.41;91.54
42003;BME280;27693;50.506;30.832;2022-09-12T03:47:45;98865.34;;;14.39;91.63
42003;BME280;27693;50.506;30.832;2022-09-12T03:48:47;98854.53;;;14.44;91.70
42003;BME280;27693;50.506;30.832;2022-09-12T03:49:49;98858.91;;;14.43;91.19
42003;BME280;27693;50.506;30.832;2022-09-12T03:50:51;98858.91;;;14.43;91.19
42003;BME280;27693;50.506;30.832;2022-09-12T03:51:53;98865.82;;;14.44;91.18
42003;BME280;27693;50.506;30.832;2022-09-12T03:52:58;98861.44;;;14.45;91.14
42003;BME280;27693;50.506;30.832;2022-09-12T03:54:00;98867.28;;;14.48;91.16
42003;BME280;27693;50.506;30.832;2022-09-12T03:55:02;98862.98;;;14.47;91.12
42003;BME280;27693;50.506;30.832;2022-09-12T03:56:06;98862.98;;;14.47;91.18
42003;BME280;27693;50.506;30.832;2022-09-12T03:57:09;98858.70;;;14.46;91.09
42003;BME280;27693;50.506;30.832;2022-09-12T03:58:11;98862.27;;;14.45;90.95
42003;BME280;27693;50.506;30.832;2022-09-12T03:59:13;98867.28;;;14.48;91.03
42003;BME280;27693;50.506;30.832;2022-09-12T04:00:16;98865.36;;;14.50;90.90
42003;BME280;27693;50.506;30.832;2022-09-12T04:01:21;98867.28;;;14.48;90.58
42003;BME280;27693;50.506;30.832;2022-09-12T04:02:23;98865.48;;;14.49;90.79
42003;BME280;27693;50.506;30.832;2022-09-12T04:03:25;98867.50;;;14.45;90.47
42003;BME280;27693;50.506;30.832;2022-09-12T04:04:27;98869.39;;;14.43;90.06
42003;BME280;27693;50.506;30.832;2022-09-12T04:05:29;98864.87;;;14.45;90.53
42003;BME280;27693;50.506;30.832;2022-09-12T04:06:31;98865.61;;;14.47;90.87
42003;BME280;27693;50.506;30.832;2022-09-12T04:07:34;98872.27;;;14.51;90.99
42003;BME280;27693;50.506;30.832;2022-09-12T04:08:36;98871.44;;;14.51;90.80
42003;BME280;27693;50.506;30.832;2022-09-12T04:09:38;98877.96;;;14.45;90.08
42003;BME280;27693;50.506;30.832;2022-09-12T04:10:41;98869.63;;;14.40;89.76
42003;BME280;27693;50.506;30.832;2022-09-12T04:11:43;98868.17;;;14.36;89.93
42003;BME280;27693;50.506;30.832;2022-09-12T04:12:45;98875.94;;;14.37;90.30
42003;BME280;27693;50.506;30.832;2022-09-12T04:13:47;98873.92;;;14.41;90.78
42003;BME280;27693;50.506;30.832;2022-09-12T04:14:49;98873.67;;;14.44;90.67
42003;BME280;27693;50.506;30.832;2022-09-12T04:15:56;98876.29;;;14.44;90.62
42003;BME280;27693;50.506;30.832;2022-09-12T04:16:59;98871.91;;;14.45;90.66
42003;BME280;27693;50.506;30.832;2022-09-12T04:18:01;98870.84;;;14.47;90.76
42003;BME280;27693;50.506;30.832;2022-09-12T04:19:05;98876.08;;;14.47;90.83
42003;BME280;27693;50.506;30.832;2022-09-12T04:20:09;98873.92;;;14.41;90.30
42003;BME280;27693;50.506;30.832;2022-09-12T04:21:14;98872.73;;;14.45;90.54
42003;BME280;27693;50.506;30.832;2022-09-12T04:22:17;98874.86;;;14.40;90.60
42003;BME280;27693;50.506;30.832;2022-09-12T04:23:19;98879.03;;;14.43;90.77
42003;BME280;27693;50.506;30.832;2022-09-12T04:24:22;98876.17;;;14.46;90.90
42003;BME280;27693;50.506;30.832;2022-09-12T04:25:24;98877.74;;;14.48;91.07
42003;BME280;27693;50.506;30.832;2022-09-12T04:26:26;98873.33;;;14.49;91.24
42003;BME280;27693;50.506;30.832;2022-09-12T04:27:28;98877.84;;;14.47;90.88
42003;BME280;27693;50.506;30.832;2022-09-12T04:28:31;98872.05;;;14.54;91.21
42003;BME280;27693;50.506;30.832;2022-09-12T04:29:33;98873.24;;;14.62;91.12
42003;BME280;27693;50.506;30.832;2022-09-12T04:30:35;98874.19;;;14.61;90.49
42003;BME280;27693;50.506;30.832;2022-09-12T04:31:38;98874.28;;;14.59;89.93
42003;BME280;27693;50.506;30.832;2022-09-12T04:32:40;98878.23;;;14.65;90.12
42003;BME280;27693;50.506;30.832;2022-09-12T04:33:43;98874.45;;;14.69;90.35
42003;BME280;27693;50.506;30.832;2022-09-12T04:34:46;98874.22;;;14.72;90.22
42003;BME280;27693;50.506;30.832;2022-09-12T04:35:48;98872.08;;;14.66;89.75
42003;BME280;27693;50.506;30.832;2022-09-12T04:36:50;98877.97;;;14.57;89.79
42003;BME280;27693;50.506;30.832;2022-09-12T04:37:53;98880.45;;;14.47;89.94
42003;BME280;27693;50.506;30.832;2022-09-12T04:38:57;98876.75;;;14.38;90.28
42003;BME280;27693;50.506;30.832;2022-09-12T04:40:04;98872.20;;;14.29;90.73
42003;BME280;27693;50.506;30.832;2022-09-12T04:41:11;98880.97;;;14.16;91.53
42003;BME280;27693;50.506;30.832;2022-09-12T04:42:14;98880.61;;;14.10;91.79
42003;BME280;27693;50.506;30.832;2022-09-12T04:43:16;98887.32;;;14.01;92.43
42003;BME280;27693;50.506;30.832;2022-09-12T04:44:19;98888.95;;;13.90;93.01
42003;BME280;27693;50.506;30.832;2022-09-12T04:45:21;98884.39;;;13.81;93.11
42003;BME280;27693;50.506;30.832;2022-09-12T04:46:29;98884.30;;;13.58;94.33
42003;BME280;27693;50.506;30.832;2022-09-12T04:47:30;98888.93;;;13.42;95.28
42003;BME280;27693;50.506;30.832;2022-09-12T04:48:32;98886.61;;;13.50;95.22
42003;BME280;27693;50.506;30.832;2022-09-12T04:49:34;98890.28;;;13.48;95.35
42003;BME280;27693;50.506;30.832;2022-09-12T04:50:36;98884.64;;;13.41;95.72
42003;BME280;27693;50.506;30.832;2022-09-12T04:51:41;98887.59;;;13.23;96.90
42003;BME280;27693;50.506;30.832;2022-09-12T04:52:52;98889.91;;;13.15;97.62
42003;BME280;27693;50.506;30.832;2022-09-12T04:53:54;98891.07;;;13.11;97.79
42003;BME280;27693;50.506;30.832;2022-09-12T04:54:56;98898.36;;;13.19;97.99
42003;BME280;27693;50.506;30.832;2022-09-12T04:56:02;98904.83;;;13.13;98.45
42003;BME280;27693;50.506;30.832;2022-09-12T04:57:04;98902.57;;;12.96;96.84
42003;BME280;27693;50.506;30.832;2022-09-12T04:58:07;98922.58;;;12.56;97.04
42003;BME280;27693;50.506;30.832;2022-09-12T04:59:11;98903.23;;;12.20;92.49
42003;BME280;27693;50.506;30.832;2022-09-12T05:00:14;98903.23;;;12.20;92.49
42003;BME280;27693;50.506;30.832;2022-09-12T05:01:19;98918.54;;;12.12;92.91
42003;BME280;27693;50.506;30.832;2022-09-12T05:02:21;98926.97;;;11.88;92.18
42003;BME280;27693;50.506;30.832;2022-09-12T05:03:24;98922.96;;;11.55;93.29
42003;BME280;27693;50.506;30.832;2022-09-12T05:04:26;98922.70;;;11.45;93.07
42003;BME280;27693;50.506;30.832;2022-09-12T05:05:27;98917.51;;;11.31;92.04
42003;BME280;27693;50.506;30.832;2022-09-12T05:06:34;98917.45;;;11.18;94.03
42003;BME280;27693;50.506;30.832;2022-09-12T05:07:44;98920.12;;;11.16;93.82
42003;BME280;27693;50.506;30.832;2022-09-12T05:08:46;98919.56;;;10.97;94.42
42003;BME280;27693;50.506;30.832;2022-09-12T05:09:48;98913.54;;;10.96;95.35
42003;BME280;27693;50.506;30.832;2022-09-12T05:10:51;98924.13;;;11.08;96.08
42003;BME280;27693;50.506;30.832;2022-09-12T05:11:53;98918.17;;;11.06;94.87
42003;BME280;27693;50.506;30.832;2022-09-12T05:12:57;98925.05;;;11.07;95.26
42003;BME280;27693;50.506;30.832;2022-09-12T05:13:58;98925.63;;;10.97;95.09
42003;BME280;27693;50.506;30.832;2022-09-12T05:15:01;98925.14;;;10.91;94.97
42003;BME280;27693;50.506;30.832;2022-09-12T05:16:05;98916.03;;;10.83;95.43
42003;BME280;27693;50.506;30.832;2022-09-12T05:17:07;98927.48;;;10.95;96.15
42003;BME280;27693;50.506;30.832;2022-09-12T05:18:09;98927.58;;;11.08;96.13
42003;BME280;27693;50.506;30.832;2022-09-12T05:19:11;98920.70;;;11.07;95.27
42003;BME280;27693;50.506;30.832;2022-09-12T05:20:14;98922.81;;;11.29;95.47
42003;BME280;27693;50.506;30.832;2022-09-12T05:21:18;98922.81;;;11.29;95.47
42003;BME280;27693;50.506;30.832;2022-09-12T05:22:21;98920.77;;;11.20;94.70
42003;BME280;27693;50.506;30.832;2022-09-12T05:23:23;98927.66;;;11.07;95.10
42003;BME280;27693;50.506;30.832;2022-09-12T05:24:25;98926.18;;;11.17;95.57
42003;BME280;27693;50.506;30.832;2022-09-12T05:25:28;98932.11;;;11.19;95.04
42003;BME280;27693;50.506;30.832;2022-09-12T05:26:30;98925.91;;;11.22;94.76
42003;BME280;27693;50.506;30.832;2022-09-12T05:27:32;98927.66;;;11.21;94.50
42003;BME280;27693;50.506;30.832;2022-09-12T05:28:36;98922.17;;;11.11;93.17
42003;BME280;27693;50.506;30.832;2022-09-12T05:29:38;98930.09;;;11.10;93.45
42003;BME280;27693;50.506;30.832;2022-09-12T05:30:41;98916.80;;;11.14;93.39
42003;BME280;27693;50.506;30.832;2022-09-12T05:31:43;98933.06;;;11.18;93.50
42003;BME280;27693;50.506;30.832;2022-09-12T05:32:45;98924.50;;;11.16;92.80
42003;BME280;27693;50.506;30.832;2022-09-12T05:33:49;98923.20;;;11.09;92.96
42003;BME280;27693;50.506;30.832;2022-09-12T05:34:51;98922.28;;;11.10;93.43
42003;BME280;27693;50.506;30.832;2022-09-12T05:35:53;98920.12;;;11.16;93.73
42003;BME280;27693;50.506;30.832;2022-09-12T05:36:56;98914.47;;;11.10;93.27
42003;BME280;27693;50.506;30.832;2022-09-12T05:37:57;98910.84;;;11.12;92.79
42003;BME280;27693;50.506;30.832;2022-09-12T05:39:00;98913.98;;;11.03;92.56
42003;BME280;27693;50.506;30.832;2022-09-12T05:40:03;98914.64;;;11.07;92.97
42003;BME280;27693;50.506;30.832;2022-09-12T05:42:28;98922.82;;;11.00;92.46
42003;BME280;27693;50.506;30.832;2022-09-12T05:43:36;98917.72;;;10.99;93.30
42003;BME280;27693;50.506;30.832;2022-09-12T05:44:35;98926.73;;;11.08;93.51
42003;BME280;27693;50.506;30.832;2022-09-12T05:45:37;98917.34;;;11.05;92.58
42003;BME280;27693;50.506;30.832;2022-09-12T05:46:42;98918.64;;;11.12;92.73
42003;BME280;27693;50.506;30.832;2022-09-12T05:47:45;98913.70;;;11.22;93.41
42003;BME280;27693;50.506;30.832;2022-09-12T05:48:48;98922.64;;;11.32;93.13
42003;BME280;27693;50.506;30.832;2022-09-12T05:49:53;98920.22;;;11.29;92.08
42003;BME280;27693;50.506;30.832;2022-09-12T05:52:14;98909.94;;;11.55;91.15
42003;BME280;27693;50.506;30.832;2022-09-12T05:53:16;98914.50;;;11.51;88.65
42003;BME280;27693;50.506;30.832;2022-09-12T05:54:18;98914.50;;;11.51;88.65
42003;BME280;27693;50.506;30.832;2022-09-12T05:55:21;98912.00;;;11.50;89.59
42003;BME280;27693;50.506;30.832;2022-09-12T05:56:26;98913.00;;;11.62;89.84
42003;BME280;27693;50.506;30.832;2022-09-12T05:57:28;98918.11;;;11.63;89.44
42003;BME280;27693;50.506;30.832;2022-09-12T05:58:30;98917.64;;;11.57;89.52
42003;BME280;27693;50.506;30.832;2022-09-12T05:59:33;98913.08;;;11.60;89.92
42003;BME280;27693;50.506;30.832;2022-09-12T06:00:36;98917.39;;;11.47;89.46
42003;BME280;27693;50.506;30.832;2022-09-12T06:01:38;98925.42;;;11.29;90.36
42003;BME280;27693;50.506;30.832;2022-09-12T06:02:41;98914.84;;;11.18;90.09
42003;BME280;27693;50.506;30.832;2022-09-12T06:03:45;98918.64;;;11.12;90.07
42003;BME280;27693;50.506;30.832;2022-09-12T06:04:48;98918.75;;;11.11;90.65
42003;BME280;27693;50.506;30.832;2022-09-12T06:05:50;98917.82;;;11.12;89.65
42003;BME280;27693;50.506;30.832;2022-09-12T06:06:52;98917.45;;;11.18;89.83
42003;BME280;27693;50.506;30.832;2022-09-12T06:07:54;98907.41;;;11.12;89.87
42003;BME280;27693;50.506;30.832;2022-09-12T06:08:59;98915.39;;;11.23;90.43
42003;BME280;27693;50.506;30.832;2022-09-12T06:10:03;98917.06;;;11.24;90.20
42003;BME280;27693;50.506;30.832;2022-09-12T06:11:06;98911.09;;;11.37;90.06
42003;BME280;27693;50.506;30.832;2022-09-12T06:12:08;98919.34;;;11.43;89.37
42003;BME280;27693;50.506;30.832;2022-09-12T06:13:10;98918.42;;;11.44;89.27
42003;BME280;27693;50.506;30.832;2022-09-12T06:14:17;98910.53;;;11.46;89.35
42003;BME280;27693;50.506;30.832;2022-09-12T06:15:20;98919.70;;;11.51;88.82
42003;BME280;27693;50.506;30.832;2022-09-12T06:16:27;98909.29;;;11.51;88.34
42003;BME280;27693;50.506;30.832;2022-09-12T06:17:29;98919.25;;;11.59;88.23
42003;BME280;27693;50.506;30.832;2022-09-12T06:18:31;98912.72;;;11.66;88.31
42003;BME280;27693;50.506;30.832;2022-09-12T06:19:33;98916.50;;;11.75;88.31
42003;BME280;27693;50.506;30.832;2022-09-12T06:20:35;98907.55;;;11.79;88.33
42003;BME280;27693;50.506;30.832;2022-09-12T06:21:37;98916.75;;;11.85;88.43
42003;BME280;27693;50.506;30.832;2022-09-12T06:22:39;98920.04;;;11.74;88.14
42003;BME280;27693;50.506;30.832;2022-09-12T06:23:42;98916.05;;;11.69;87.40